createdAt,value
2022-08-07T00:01:43.896Z,12.20
2022-08-07T00:04:11.182Z,12.30
2022-08-07T00:06:41.134Z,13.40
2022-08-07T00:09:20.821Z,13.20
2022-08-07T00:11:56.196Z,11.60
2022-08-07T00:14:31.230Z,11.90
2022-08-07T00:17:03.002Z,12.00
2022-08-07T00:20:00.318Z,12.30
2022-08-07T00:22:24.828Z,11.50
2022-08-07T00:25:11.058Z,10.60
2022-08-07T00:27:52.501Z,11.10
2022-08-07T00:30:26.958Z,10.90
2022-08-07T00:33:00.370Z,9.90
2022-08-07T00:35:29.760Z,10.30
2022-08-07T00:37:58.770Z,11.10
2022-08-07T00:40:40.079Z,10.40
2022-08-07T00:43:12.868Z,10.30
2022-08-07T00:45:59.683Z,10.10
2022-08-07T00:48:32.181Z,11.60
2022-08-07T00:51:01.133Z,10.40
2022-08-07T00:53:32.106Z,8.00
2022-08-07T00:56:07.510Z,8.50
2022-08-07T00:58:47.106Z,9.90
2022-08-07T01:01:18.343Z,10.40
2022-08-07T01:03:57.235Z,9.30
2022-08-07T01:06:29.325Z,9.40
2022-08-07T01:09:00.626Z,9.80
2022-08-07T01:12:09.428Z,9.40
2022-08-07T01:14:21.131Z,7.80
2022-08-07T01:16:56.331Z,8.00
2022-08-07T01:19:24.961Z,7.70
2022-08-07T01:21:55.396Z,7.80
2022-08-07T01:24:27.768Z,8.20
2022-08-07T01:27:00.445Z,7.90
2022-08-07T01:29:33.938Z,7.40
2022-08-07T01:32:05.544Z,7.70
2022-08-07T01:34:39.874Z,8.10
2022-08-07T01:37:13.597Z,7.50
2022-08-07T01:39:46.765Z,8.00
2022-08-07T01:42:38.619Z,8.20
2022-08-07T01:45:18.092Z,8.70
2022-08-07T01:48:21.602Z,8.90
2022-08-07T01:50:42.990Z,9.00
2022-08-07T01:53:20.893Z,9.30
2022-08-07T01:56:04.201Z,9.30
2022-08-07T01:58:41.170Z,8.50
2022-08-07T02:01:25.689Z,7.50
2022-08-07T02:04:17.686Z,7.90
2022-08-07T02:06:50.536Z,9.10
2022-08-07T02:09:33.904Z,8.70
2022-08-07T02:12:18.046Z,9.30
2022-08-07T02:14:58.033Z,8.90
2022-08-07T02:17:34.473Z,7.70
2022-08-07T02:20:09.309Z,10.10
2022-08-07T02:22:45.120Z,8.60
2022-08-07T02:25:18.491Z,8.50
2022-08-07T02:27:55.941Z,10.00
2022-08-07T02:30:24.543Z,8.10
2022-08-07T02:33:03.961Z,7.70
2022-08-07T02:36:28.441Z,8.10
2022-08-07T02:38:33.965Z,9.50
2022-08-07T02:41:04.471Z,9.00
2022-08-07T02:43:38.934Z,8.30
2022-08-07T02:46:07.555Z,10.00
2022-08-07T02:48:35.556Z,9.30
2022-08-07T02:51:14.421Z,9.40
2022-08-07T02:54:02.669Z,8.80
2022-08-07T02:56:33.175Z,9.10
2022-08-07T02:59:04.687Z,9.60
2022-08-07T03:01:35.833Z,7.70
2022-08-07T03:04:12.824Z,8.30
2022-08-07T03:06:44.784Z,9.70
2022-08-07T03:09:14.036Z,8.90
2022-08-07T03:11:51.762Z,9.90
2022-08-07T03:14:26.200Z,11.70
2022-08-07T03:16:56.710Z,8.70
2022-08-07T03:19:24.863Z,8.70
2022-08-07T03:21:57.227Z,13.80
2022-08-07T03:24:28.136Z,9.00
2022-08-07T03:27:03.177Z,9.40
2022-08-07T03:29:52.558Z,8.40
2022-08-07T03:32:29.658Z,9.00
2022-08-07T03:35:17.762Z,8.60
2022-08-07T03:37:55.183Z,9.00
2022-08-07T03:40:30.778Z,10.00
2022-08-07T03:43:00.793Z,11.80
2022-08-07T03:45:30.918Z,9.70
2022-08-07T03:48:02.763Z,9.90
2022-08-07T03:50:31.596Z,8.80
2022-08-07T03:53:02.917Z,10.90
2022-08-07T03:55:57.595Z,9.60
2022-08-07T03:59:07.478Z,8.90
2022-08-07T04:01:11.118Z,9.40
2022-08-07T04:03:53.442Z,7.80
2022-08-07T04:06:37.187Z,7.90
2022-08-07T04:09:15.187Z,8.00
2022-08-07T04:12:24.712Z,10.40
2022-08-07T04:14:37.333Z,9.90
2022-08-07T04:17:05.833Z,10.30
2022-08-07T04:19:52.861Z,9.50
2022-08-07T04:22:29.306Z,9.00
2022-08-07T04:25:01.346Z,9.30
2022-08-07T04:27:36.194Z,6.30
2022-08-07T04:30:21.445Z,8.50
2022-08-07T04:33:08.274Z,8.50
2022-08-07T04:35:38.495Z,7.50
2022-08-07T04:38:11.532Z,6.60
2022-08-07T04:40:52.892Z,8.10
2022-08-07T04:44:10.216Z,9.70
2022-08-07T04:46:59.387Z,9.60
2022-08-07T04:49:37.849Z,8.70
2022-08-07T04:52:28.902Z,8.30
2022-08-07T04:58:13.157Z,7.10
2022-08-07T05:02:28.473Z,9.80
2022-08-07T05:05:52.561Z,9.60
2022-08-07T05:08:59.742Z,6.90
2022-08-07T05:11:57.215Z,9.20
2022-08-07T05:14:56.350Z,8.20
2022-08-07T05:17:50.842Z,7.70
2022-08-07T05:20:14.128Z,9.00
2022-08-07T05:22:48.935Z,7.90
2022-08-07T05:25:36.650Z,6.20
2022-08-07T05:28:20.004Z,7.30
2022-08-07T05:30:53.362Z,7.70
2022-08-07T05:33:21.608Z,6.80
2022-08-07T05:35:53.399Z,7.00
2022-08-07T05:38:58.387Z,8.00
2022-08-07T05:41:14.178Z,6.60
2022-08-07T05:44:12.012Z,6.90
2022-08-07T05:46:38.532Z,6.10
2022-08-07T05:49:12.006Z,7.20
2022-08-07T05:51:46.439Z,7.20
2022-08-07T05:54:30.695Z,5.30
2022-08-07T05:57:01.232Z,6.90
2022-08-07T05:59:46.529Z,7.00
2022-08-07T06:02:29.141Z,6.90
2022-08-07T06:05:03.881Z,5.90
2022-08-07T06:08:14.918Z,5.70
2022-08-07T06:10:21.895Z,6.40
2022-08-07T06:12:50.023Z,6.10
2022-08-07T06:15:19.746Z,6.60
2022-08-07T06:17:50.647Z,4.80
2022-08-07T06:20:32.036Z,5.30
2022-08-07T06:23:46.214Z,5.80
2022-08-07T06:26:00.756Z,4.40
2022-08-07T06:28:28.660Z,5.40
2022-08-07T06:30:58.050Z,4.50
2022-08-07T06:33:27.068Z,5.70
2022-08-07T06:36:06.673Z,3.70
2022-08-07T06:38:58.495Z,5.20
2022-08-07T06:42:02.318Z,4.10
2022-08-07T06:45:05.021Z,4.30
2022-08-07T06:47:38.891Z,5.10
2022-08-07T06:50:19.048Z,5.60
2022-08-07T06:52:55.924Z,4.30
2022-08-07T06:55:48.068Z,5.60
2022-08-07T06:58:16.686Z,5.40
2022-08-07T07:00:55.632Z,6.10
2022-08-07T07:03:39.614Z,5.40
2022-08-07T07:06:11.316Z,5.30
2022-08-07T07:08:39.653Z,4.70
2022-08-07T07:12:07.945Z,4.50
2022-08-07T07:14:02.660Z,4.90
2022-08-07T07:16:39.179Z,4.50
2022-08-07T07:19:56.130Z,5.10
2022-08-07T07:22:36.262Z,3.90
2022-08-07T07:25:14.081Z,6.00
2022-08-07T07:28:29.768Z,4.70
2022-08-07T07:31:17.311Z,5.10
2022-08-07T07:33:56.870Z,4.70
2022-08-07T07:36:32.439Z,4.90
2022-08-07T07:39:03.006Z,4.30
2022-08-07T07:41:50.878Z,4.00
2022-08-07T07:44:25.673Z,5.60
2022-08-07T07:47:01.238Z,4.30
2022-08-07T07:50:34.082Z,4.60
2022-08-07T07:52:27.336Z,4.80
2022-08-07T07:54:56.039Z,4.50
2022-08-07T07:57:43.854Z,6.20
2022-08-07T08:00:20.908Z,5.50
2022-08-07T08:03:08.034Z,5.00
2022-08-07T08:05:54.496Z,4.80
2022-08-07T08:08:35.743Z,4.60
2022-08-07T08:11:13.556Z,5.20
2022-08-07T08:13:54.254Z,5.30
2022-08-07T08:16:29.583Z,4.50
2022-08-07T08:18:58.739Z,5.50
2022-08-07T08:21:55.859Z,4.00
2022-08-07T08:25:04.691Z,4.20
2022-08-07T08:27:56.508Z,4.80
2022-08-07T08:30:29.795Z,5.00
2022-08-07T08:33:03.136Z,4.90
2022-08-07T08:35:39.419Z,4.50
2022-08-07T08:38:19.689Z,5.00
2022-08-07T08:40:55.645Z,4.20
2022-08-07T08:43:42.232Z,5.40
2022-08-07T08:46:20.526Z,4.30
2022-08-07T08:49:05.390Z,5.50
2022-08-07T08:52:13.139Z,5.00
2022-08-07T08:54:41.238Z,4.80
2022-08-07T08:57:16.626Z,4.40
2022-08-07T09:00:00.086Z,4.90
2022-08-07T09:02:39.220Z,4.10
2022-08-07T09:05:42.459Z,4.90
2022-08-07T09:08:34.557Z,5.70
2022-08-07T09:11:24.377Z,5.30
2022-08-07T09:14:14.586Z,5.40
2022-08-07T09:16:47.519Z,5.10
2022-08-07T09:19:52.618Z,4.40
2022-08-07T09:24:33.019Z,4.90
2022-08-07T09:25:38.302Z,4.90
2022-08-07T09:30:01.098Z,5.20
2022-08-07T09:31:25.429Z,4.60
2022-08-07T09:34:27.179Z,5.10
2022-08-07T09:37:33.464Z,5.40
2022-08-07T09:40:42.560Z,5.00
2022-08-07T09:43:40.104Z,5.00
2022-08-07T09:47:52.061Z,4.80
2022-08-07T09:50:46.938Z,5.10
2022-08-07T09:53:16.021Z,3.50
2022-08-07T09:56:03.650Z,4.10
2022-08-07T09:59:07.826Z,5.90
2022-08-07T10:02:37.738Z,5.60
2022-08-07T10:05:17.482Z,6.20
2022-08-07T10:08:21.299Z,4.80
2022-08-07T10:12:00.592Z,4.30
2022-08-07T10:14:58.267Z,7.50
2022-08-07T10:18:01.804Z,5.10
2022-08-07T10:21:08.706Z,4.60
2022-08-07T10:24:53.551Z,4.40
2022-08-07T10:28:06.600Z,4.40
2022-08-07T10:31:06.024Z,5.80
2022-08-07T10:34:37.467Z,4.50
2022-08-07T10:37:48.426Z,4.10
2022-08-07T10:40:30.216Z,4.80
2022-08-07T10:43:34.749Z,5.60
2022-08-07T10:46:13.566Z,4.70
2022-08-07T10:48:55.402Z,5.10
2022-08-07T10:51:39.315Z,5.60
2022-08-07T10:54:53.421Z,3.80
2022-08-07T10:57:46.595Z,6.70
2022-08-07T11:00:39.203Z,4.60
2022-08-07T11:03:37.798Z,4.40
2022-08-07T11:06:48.191Z,4.50
2022-08-07T11:10:09.594Z,4.80
2022-08-07T11:12:31.349Z,4.40
2022-08-07T11:15:09.586Z,4.80
2022-08-07T11:17:56.971Z,5.80
2022-08-07T11:21:05.537Z,4.80
2022-08-07T11:24:00.262Z,5.50
2022-08-07T11:26:48.335Z,4.20
2022-08-07T11:29:42.093Z,4.90
2022-08-07T11:32:25.334Z,4.70
2022-08-07T11:34:59.915Z,6.40
2022-08-07T11:37:58.272Z,5.90
2022-08-07T11:41:02.236Z,4.70
2022-08-07T11:43:54.350Z,3.90
2022-08-07T11:46:57.126Z,5.10
2022-08-07T11:50:30.307Z,5.00
2022-08-07T11:53:10.578Z,5.80
2022-08-07T11:56:26.818Z,5.10
2022-08-07T12:00:10.852Z,4.90
2022-08-07T12:02:52.177Z,4.20
2022-08-07T12:05:58.374Z,4.90
2022-08-07T12:08:46.817Z,5.30
2022-08-07T12:11:24.156Z,5.60
2022-08-07T12:14:11.782Z,5.40
2022-08-07T12:16:51.506Z,5.30
2022-08-07T12:20:02.675Z,5.30
2022-08-07T12:22:56.243Z,4.30
2022-08-07T12:26:21.906Z,5.20
2022-08-07T12:28:57.451Z,5.10
2022-08-07T12:32:03.896Z,6.80
2022-08-07T12:34:39.123Z,6.70
2022-08-07T12:37:16.539Z,6.10
2022-08-07T12:39:58.853Z,4.90
2022-08-07T12:42:32.211Z,5.20
2022-08-07T12:45:07.855Z,5.30
2022-08-07T12:47:53.458Z,4.50
2022-08-07T12:50:40.238Z,4.10
2022-08-07T12:54:03.155Z,5.50
2022-08-07T12:56:37.329Z,3.70
2022-08-07T12:59:08.250Z,4.20
2022-08-07T13:02:33.149Z,4.30
2022-08-07T13:06:03.676Z,4.50
2022-08-07T13:08:44.653Z,4.70
2022-08-07T13:12:01.958Z,4.20
2022-08-07T13:15:01.745Z,4.50
2022-08-07T13:17:52.678Z,5.10
2022-08-07T13:20:33.875Z,3.80
2022-08-07T13:24:04.277Z,4.10
2022-08-07T13:26:50.595Z,4.70
2022-08-07T13:29:27.892Z,4.20
2022-08-07T13:32:32.444Z,3.80
2022-08-07T13:35:08.651Z,5.30
2022-08-07T13:37:58.847Z,3.90
2022-08-07T13:41:02.342Z,4.50
2022-08-07T13:43:34.440Z,5.10
2022-08-07T13:46:12.527Z,4.30
2022-08-07T13:48:58.596Z,4.40
2022-08-07T13:52:22.260Z,5.00
2022-08-07T13:54:22.558Z,4.30
2022-08-07T13:56:59.570Z,4.60
2022-08-07T13:59:31.462Z,5.30
2022-08-07T14:02:08.706Z,4.30
2022-08-07T14:04:54.686Z,3.80
2022-08-07T14:07:34.022Z,4.70
2022-08-07T14:10:16.320Z,4.20
2022-08-07T14:13:02.840Z,5.20
2022-08-07T14:15:43.099Z,4.10
2022-08-07T14:18:33.269Z,4.80
2022-08-07T14:22:01.440Z,5.30
2022-08-07T14:24:25.795Z,4.40
2022-08-07T14:27:00.814Z,4.60
2022-08-07T14:30:07.762Z,3.70
2022-08-07T14:33:01.785Z,5.20
2022-08-07T14:35:44.914Z,4.70
2022-08-07T14:38:26.412Z,4.40
2022-08-07T14:41:06.122Z,4.30
2022-08-07T14:43:57.321Z,4.80
2022-08-07T14:49:57.582Z,4.70
2022-08-07T14:52:10.463Z,4.30
2022-08-07T14:54:43.015Z,4.60
2022-08-07T14:57:19.409Z,4.40
2022-08-07T15:00:04.166Z,4.50
2022-08-07T15:02:34.965Z,4.20
2022-08-07T15:05:05.018Z,4.60
2022-08-07T15:07:51.813Z,5.30
2022-08-07T15:10:29.642Z,4.40
2022-08-07T15:13:06.430Z,5.20
2022-08-07T15:15:52.749Z,5.30
2022-08-07T15:18:35.605Z,7.10
2022-08-07T15:21:59.324Z,5.90
2022-08-07T15:27:09.172Z,6.90
2022-08-07T15:30:09.324Z,5.00
2022-08-07T15:32:39.712Z,5.10
2022-08-07T15:36:00.504Z,5.10
2022-08-07T15:38:17.714Z,5.40
2022-08-07T15:41:23.790Z,5.00
2022-08-07T15:44:03.405Z,4.00
2022-08-07T15:46:38.536Z,4.30
2022-08-07T15:49:17.963Z,5.40
2022-08-07T15:54:39.552Z,5.20
2022-08-07T15:57:40.141Z,4.50
2022-08-07T16:00:06.376Z,4.80
2022-08-07T16:02:46.983Z,5.20
2022-08-07T16:05:19.643Z,5.60
2022-08-07T16:08:33.647Z,5.30
2022-08-07T16:10:42.286Z,6.00
2022-08-07T16:13:57.666Z,5.70
2022-08-07T16:16:42.919Z,5.10
2022-08-07T16:20:00.389Z,5.40
2022-08-07T16:22:37.938Z,5.70
2022-08-07T16:25:52.987Z,5.40
2022-08-07T16:30:06.461Z,5.40
2022-08-07T16:32:32.748Z,6.40
2022-08-07T16:35:52.132Z,6.40
2022-08-07T16:39:00.499Z,5.60
2022-08-07T16:41:54.339Z,5.10
2022-08-07T16:45:15.533Z,5.70
2022-08-07T16:47:56.663Z,6.80
2022-08-07T16:51:21.575Z,6.10
2022-08-07T16:54:09.107Z,5.20
2022-08-07T16:56:54.511Z,6.40
2022-08-07T16:59:55.694Z,5.60
2022-08-07T17:03:09.613Z,6.50
2022-08-07T17:06:29.362Z,6.70
2022-08-07T17:09:13.971Z,6.20
2022-08-07T17:12:04.090Z,6.50
2022-08-07T17:14:46.699Z,5.60
2022-08-07T17:17:49.382Z,5.60
2022-08-07T17:20:37.884Z,6.00
2022-08-07T17:23:22.769Z,5.30
2022-08-07T17:26:30.724Z,6.60
2022-08-07T17:30:12.396Z,6.20
2022-08-07T17:32:52.394Z,5.90
2022-08-07T17:35:50.432Z,6.80
2022-08-07T17:38:52.353Z,6.40
2022-08-07T17:42:03.445Z,6.40
2022-08-07T17:44:50.082Z,6.30
2022-08-07T17:47:42.724Z,5.80
2022-08-07T17:50:42.534Z,6.00
2022-08-07T17:53:59.947Z,6.20
2022-08-07T17:56:49.425Z,5.70
2022-08-07T17:59:26.249Z,8.60
2022-08-07T18:02:56.787Z,6.40
2022-08-07T18:06:02.357Z,5.70
2022-08-07T18:08:33.894Z,7.00
2022-08-07T18:12:07.303Z,5.30
2022-08-07T18:14:28.281Z,5.90
2022-08-07T18:17:06.202Z,7.20
2022-08-07T18:21:04.329Z,7.90
2022-08-07T18:23:04.717Z,6.30
2022-08-07T18:25:40.441Z,8.70
2022-08-07T18:28:57.904Z,5.40
2022-08-07T18:31:50.290Z,6.20
2022-08-07T18:34:53.331Z,5.50
2022-08-07T18:38:54.814Z,6.20
2022-08-07T18:40:59.312Z,6.30
2022-08-07T18:43:50.603Z,6.30
2022-08-07T18:46:51.068Z,4.70
2022-08-07T18:50:31.094Z,6.50
2022-08-07T18:53:17.271Z,6.10
2022-08-07T18:56:18.321Z,6.10
2022-08-07T18:59:47.208Z,6.10
2022-08-07T19:02:32.725Z,6.00
2022-08-07T19:05:15.807Z,6.10
2022-08-07T19:08:04.026Z,6.20
2022-08-07T19:10:51.433Z,5.30
2022-08-07T19:13:55.556Z,7.30
2022-08-07T19:17:06.129Z,5.50
2022-08-07T19:20:06.005Z,6.00
2022-08-07T19:23:21.244Z,6.70
2022-08-07T19:26:24.008Z,6.30
2022-08-07T19:31:06.373Z,5.60
2022-08-07T19:32:08.256Z,6.60
2022-08-07T19:34:43.968Z,7.40
2022-08-07T19:37:19.501Z,5.60
2022-08-07T19:40:02.071Z,5.10
2022-08-07T19:42:42.710Z,6.40
2022-08-07T19:46:07.592Z,5.90
2022-08-07T19:48:18.509Z,6.40
2022-08-07T19:50:53.645Z,5.70
2022-08-07T19:54:33.412Z,6.40
2022-08-07T19:57:52.368Z,6.20
2022-08-07T19:58:58.532Z,5.30
2022-08-07T20:01:56.039Z,7.30
2022-08-07T20:04:32.129Z,6.60
2022-08-07T20:07:09.391Z,7.70
2022-08-07T20:10:35.746Z,7.20
2022-08-07T20:12:38.204Z,6.90
2022-08-07T20:15:15.783Z,6.20
2022-08-07T20:18:01.655Z,5.90
2022-08-07T20:20:33.178Z,6.50
2022-08-07T20:23:10.945Z,7.20
2022-08-07T20:25:53.554Z,6.00
2022-08-07T20:28:45.448Z,5.00
2022-08-07T20:31:23.217Z,6.90
2022-08-07T20:33:56.679Z,7.60
2022-08-07T20:36:27.671Z,7.50
2022-08-07T20:39:00.716Z,6.40
2022-08-07T20:41:40.849Z,6.60
2022-08-07T20:44:12.657Z,6.40
2022-08-07T20:46:44.075Z,6.80
2022-08-07T20:49:57.940Z,6.60
2022-08-07T20:52:14.073Z,6.20
2022-08-07T20:54:53.261Z,6.40
2022-08-07T20:57:47.536Z,5.50
2022-08-07T21:00:44.458Z,5.30
2022-08-07T21:03:18.887Z,6.20
2022-08-07T21:05:57.149Z,6.50
2022-08-07T21:08:38.225Z,6.30
2022-08-07T21:11:18.927Z,6.20
2022-08-07T21:14:32.135Z,5.30
2022-08-07T21:18:01.031Z,5.70
2022-08-07T21:19:51.587Z,6.60
2022-08-07T21:22:29.360Z,7.00
2022-08-07T21:25:29.101Z,6.10
2022-08-07T21:28:47.575Z,5.80
2022-08-07T21:32:10.764Z,8.40
2022-08-07T21:34:49.950Z,5.90
2022-08-07T21:37:58.421Z,8.00
2022-08-07T21:40:43.391Z,6.80
2022-08-07T21:43:56.051Z,6.20
2022-08-07T21:46:32.985Z,5.90
2022-08-07T21:49:17.806Z,6.00
2022-08-07T21:51:54.828Z,6.30
2022-08-07T21:54:38.673Z,6.60
2022-08-07T21:57:39.959Z,5.80
2022-08-07T22:00:23.057Z,6.70
2022-08-07T22:03:09.473Z,5.90
2022-08-07T22:05:50.105Z,6.70
2022-08-07T22:08:23.206Z,6.20
2022-08-07T22:11:00.609Z,6.10
2022-08-07T22:13:52.233Z,6.10
2022-08-07T22:16:44.939Z,7.20
2022-08-07T22:19:20.012Z,5.80
2022-08-07T22:22:04.560Z,7.50
2022-08-07T22:24:55.728Z,5.90
2022-08-07T22:28:08.161Z,6.30
2022-08-07T22:31:45.666Z,6.30
2022-08-07T22:34:13.240Z,7.20
2022-08-07T22:37:26.786Z,7.20
2022-08-07T22:40:40.253Z,5.40
2022-08-07T22:43:15.919Z,6.00
2022-08-07T22:46:40.500Z,6.80
2022-08-07T22:49:33.728Z,5.80
2022-08-07T22:52:55.383Z,5.80
2022-08-07T22:55:56.731Z,6.00
2022-08-07T22:59:00.210Z,6.60
2022-08-07T23:02:13.720Z,6.10
2022-08-07T23:06:14.727Z,5.90
2022-08-07T23:08:30.581Z,5.50
2022-08-07T23:11:45.694Z,7.00
2022-08-07T23:14:40.650Z,6.00
2022-08-07T23:17:34.809Z,5.60
2022-08-07T23:20:52.696Z,7.70
2022-08-07T23:24:11.688Z,6.80
2022-08-07T23:28:22.529Z,5.80
2022-08-07T23:31:11.229Z,6.30
2022-08-07T23:34:34.365Z,6.80
2022-08-07T23:38:00.983Z,5.90
2022-08-07T23:40:36.402Z,6.70
2022-08-07T23:43:39.982Z,6.90
2022-08-07T23:46:27.364Z,7.10
2022-08-07T23:49:15.807Z,5.90
2022-08-07T23:52:59.939Z,5.70
2022-08-07T23:55:53.237Z,6.90
2022-08-07T23:58:20.056Z,5.70
